Capitol Logistics 998

Operating for DHL



EGNX
East Midlands Airport
Derby, GB
EGSS
London Stansted Airport
London, GB

Activity Log

Date Flight Route Aircraft Duration
01/10/2022 CPX998 DTY3N DTY M605 FINMA FINM1L B738 0h 40m

Route Details

Aircraft Information
Group: European Fleet
Types: A30F,A31F,B738
Route Data
Demand: M
Distance: 81nm
Duration: 0h 55m
Recm'd Route: DTY3N DTY M605 FINMA FINM1L
Origin Wx: EGNX 242150Z 25011KT CAVOK 11/06 Q1009
Dest. Wx: EGSS 242120Z 19007KT 9999 BKN038 BKN045 11/09 Q1011
Notes:

Financial History
Total Freight: 32,208lbs
Average Load: 32,208lbs/flt
Fuel Used: 3,662lbs
Avg. Fuel Used: 3,662lbs/flt
Fuel Expense: $1,501
Avg. Fuel Expense: $1,501
Avg. Fuel Cost: $0.41/lbs
Total Gross Income: $66,477
Pilot Pay: $79
Total Expenses: $9,627
Total Revenue: $55,317
Average Revenue: $66,477.31